< Cyclone 197711 1977 Season Cyclone 197713 >
Cyclone 197712 (LEO)
General InformationTrack Information on Google MapsDetailed Wind Information || ResourceGoogle EarthGE AnimationAtom FeedGeoJSON
Detalied Best Track (Time Zone = UTC)
Year Month Day Hour Lat. Long. Pressure (hPa) Wind (kt) Class Image Chart
1977 3 24 01 -15.5 124.8 1005 25 2 -- --
1977 3 24 04 -15.4 124.3 1003 25 2 -- --
1977 3 24 07 -15.4 123.9 1000 30 2 -- --
1977 3 24 10 -15.3 123.4 998 30 2 -- --
1977 3 24 13 -15.4 123.0 995 35 3 -- --
1977 3 24 16 -15.6 122.6 993 40 3 -- --
1977 3 24 19 -15.9 122.1 992 45 3 -- --
1977 3 24 22 -16.1 121.7 991 45 3 -- --
1977 3 25 01 -16.4 121.3 990 50 4 -- --
1977 3 25 04 -16.6 120.9 987 50 4 -- --
1977 3 25 07 -16.8 120.5 984 55 4 -- --
1977 3 25 10 -17.0 120.1 982 60 4 -- --
1977 3 25 13 -17.2 119.8 980 65 5 -- --
1977 3 25 16 -17.5 119.6 977 70 5 -- --
1977 3 25 19 -17.7 119.3 973 75 5 -- --
1977 3 25 22 -17.9 119.1 969 80 5 -- --
1977 3 26 01 -18.1 118.9 965 80 5 -- --
1977 3 26 04 -18.5 118.8 963 85 5 -- --
1977 3 26 07 -18.8 118.7 962 85 5 -- --
1977 3 26 10 -19.1 118.7 961 85 5 -- --
1977 3 26 13 -19.5 118.7 960 90 5 -- --
1977 3 26 16 -19.8 118.9 960 90 5 -- --
1977 3 26 19 -20.0 119.0 965 90 5 -- --
1977 3 26 22 -20.2 119.2 972 75 5 -- --
1977 3 27 01 -20.5 119.3 980 65 5 -- --
1977 3 27 04 -21.0 119.7 986 55 4 -- --
1977 3 27 07 -21.2 120.1 991 45 3 -- --
1977 3 27 10 -21.3 120.5 993 40 3 -- --
1977 3 27 13 -21.4 120.9 995 35 3 -- --
1977 3 27 16 -21.5 121.3 997 35 3 -- --
1977 3 27 19 -21.6 121.8 999 30 2 -- --
1977 3 27 22 -21.6 122.3 1001 25 2 -- --
1977 3 28 01 -21.7 122.8 1002 25 2 -- --
< Cyclone 197711 1977 Season Cyclone 197713 >

Help